Aegean Tiffany — SVAE9 — position and weather

sailwx.info

Track history (hours):
 
Tides and Currents Weather Stations Pressure Air Temp Water Temp Dewpoint Dewpoint Depression Visibility Wind Speed Wind Dir Waves Ship Positions

Aegean Tiffany

Last reported at 2014-Jul-24 18:31 UTC. Time now 2014-Jul-28 18:26 UTC.
Position N 37°55' E 023°11'.

Length 80 m; draft 5.7 m.

Type: Tanker. MMSI: 240870000.

Date/timePositionNaut miles runAvg speedWind from/ knotsBaromVisibWave heightAir tempDewpointWater temp
2014-Jul-24 18:31N 37°55' E 023°11'8 8.5
2014-Jul-24 17:33N 37°57' E 023°21'8 6.7
2014-Jul-24 16:19N 38°01' E 023°30'2 0.3
2014-Jul-24 09:09N 38°02' E 023°32'1 1.6
2014-Jul-24 08:33N 38°02' E 023°31'0 0.0
2014-Jul-24 07:33N 38°02' E 023°31'0 0.0
2014-Jul-24 06:33N 38°02' E 023°31'0 0.0
2014-Jul-24 05:33N 38°02' E 023°31'0 0.0
2014-Jul-24 04:33N 38°02' E 023°31'0 0.0
2014-Jul-24 03:24N 38°02' E 023°31'0 0.0
2014-Jul-24 02:29N 38°02' E 023°31'0 0.0
2014-Jul-24 01:33N 38°02' E 023°31'0 0.0
2014-Jul-24 00:33N 38°02' E 023°31'0 0.0
2014-Jul-23 23:33N 38°02' E 023°31'0 0.0
2014-Jul-23 22:33N 38°02' E 023°31'0 0.0
2014-Jul-23 21:33N 38°02' E 023°31'0 0.0
2014-Jul-23 20:33N 38°02' E 023°31'0 0.0
2014-Jul-23 19:33N 38°02' E 023°31'0 0.0
2014-Jul-23 18:33N 38°02' E 023°31'1 0.1
2014-Jul-23 08:22N 38°02' E 023°32'0 0.0
2014-Jul-23 07:32N 38°02' E 023°32'0 0.0
2014-Jul-23 06:32N 38°02' E 023°32'0 0.0
2014-Jul-23 05:33N 38°02' E 023°32'0 0.0
2014-Jul-22 11:25N 38°02' E 023°32'0 0.0
2014-Jul-22 10:33N 38°02' E 023°32'0 0.0
2014-Jul-22 09:34N 38°02' E 023°32'0 0.0
2014-Jul-22 08:09N 38°02' E 023°32'0 0.0
2014-Jul-22 07:27N 38°02' E 023°32'0 0.0
2014-Jul-22 06:15N 38°02' E 023°32'0 0.0
2014-Jul-22 04:30N 38°02' E 023°32'0 0.0
2014-Jul-22 02:26N 38°02' E 023°32'0 0.0
2014-Jul-22 01:32N 38°02' E 023°32'0 0.2
2014-Jul-22 00:33N 38°02' E 023°32'6 6.3
2014-Jul-21 23:33N 37°58' E 023°26'  
2014-Jul-17 21:26N 37°55' E 023°10'8 8.8
2014-Jul-17 20:33N 37°57' E 023°19'6 6.5
2014-Jul-17 19:33N 38°00' E 023°26'5 5.1
2014-Jul-17 18:34N 38°02' E 023°32'0 0.0
2014-Jul-17 17:17N 38°02' E 023°32'0 0.0
2014-Jul-17 16:34N 38°02' E 023°32'0 0.0
2014-Jul-17 11:32N 38°02' E 023°32'0 0.0
2014-Jul-17 10:30N 38°02' E 023°32'0 0.1
2014-Jul-17 09:33N 38°02' E 023°32'1 1.0
2014-Jul-17 08:33N 38°02' E 023°31'0 0.2
2014-Jul-17 07:33N 38°02' E 023°31'0 0.0
2014-Jul-17 06:31N 38°02' E 023°31'0 0.0
2014-Jul-17 05:33N 38°02' E 023°31'0 0.0
2014-Jul-17 04:33N 38°02' E 023°31'0 0.0
2014-Jul-17 03:31N 38°02' E 023°31'0 0.0
2014-Jul-17 02:26N 38°02' E 023°31'0 0.0
2014-Jul-17 01:28N 38°02' E 023°31'0 0.0
2014-Jul-17 00:33N 38°02' E 023°31'0 0.0
2014-Jul-16 23:31N 38°02' E 023°31'0 0.0
2014-Jul-16 22:28N 38°02' E 023°31'0 0.0
2014-Jul-16 21:29N 38°02' E 023°31'0 0.1
2014-Jul-16 20:27N 38°02' E 023°31'1 1.1
2014-Jul-16 19:33N 38°02' E 023°32'0 0.0
2014-Jul-14 20:15N 38°02' E 023°32'  
Track history (hours):
 
Tides and Currents Weather Stations Pressure Air Temp Water Temp Dewpoint Dewpoint Depression Visibility Wind Speed Wind Dir Waves Ship Positions

Aegean Tiffany

Last reported at 2014-Jul-24 18:31 UTC. Time now 2014-Jul-28 18:26 UTC.
Position N 37°55' E 023°11'.

Length 80 m; draft 5.7 m.

Type: Tanker. MMSI: 240870000.

Date/timePositionNaut miles runAvg speedWind from/ knotsBaromVisibWave heightAir tempDewpointWater temp
2014-Jul-24 18:31N 37°55' E 023°11'8 8.5
2014-Jul-24 17:33N 37°57' E 023°21'8 6.7
2014-Jul-24 16:19N 38°01' E 023°30'2 0.3
2014-Jul-24 09:09N 38°02' E 023°32'1 1.6
2014-Jul-24 08:33N 38°02' E 023°31'0 0.0
2014-Jul-24 07:33N 38°02' E 023°31'0 0.0
2014-Jul-24 06:33N 38°02' E 023°31'0 0.0
2014-Jul-24 05:33N 38°02' E 023°31'0 0.0
2014-Jul-24 04:33N 38°02' E 023°31'0 0.0
2014-Jul-24 03:24N 38°02' E 023°31'0 0.0
2014-Jul-24 02:29N 38°02' E 023°31'0 0.0
2014-Jul-24 01:33N 38°02' E 023°31'0 0.0
2014-Jul-24 00:33N 38°02' E 023°31'0 0.0
2014-Jul-23 23:33N 38°02' E 023°31'0 0.0
2014-Jul-23 22:33N 38°02' E 023°31'0 0.0
2014-Jul-23 21:33N 38°02' E 023°31'0 0.0
2014-Jul-23 20:33N 38°02' E 023°31'0 0.0
2014-Jul-23 19:33N 38°02' E 023°31'0 0.0
2014-Jul-23 18:33N 38°02' E 023°31'1 0.1
2014-Jul-23 08:22N 38°02' E 023°32'0 0.0
2014-Jul-23 07:32N 38°02' E 023°32'0 0.0
2014-Jul-23 06:32N 38°02' E 023°32'0 0.0
2014-Jul-23 05:33N 38°02' E 023°32'0 0.0
2014-Jul-22 11:25N 38°02' E 023°32'0 0.0
2014-Jul-22 10:33N 38°02' E 023°32'0 0.0
2014-Jul-22 09:34N 38°02' E 023°32'0 0.0
2014-Jul-22 08:09N 38°02' E 023°32'0 0.0
2014-Jul-22 07:27N 38°02' E 023°32'0 0.0
2014-Jul-22 06:15N 38°02' E 023°32'0 0.0
2014-Jul-22 04:30N 38°02' E 023°32'0 0.0
2014-Jul-22 02:26N 38°02' E 023°32'0 0.0
2014-Jul-22 01:32N 38°02' E 023°32'0 0.2
2014-Jul-22 00:33N 38°02' E 023°32'6 6.3
2014-Jul-21 23:33N 37°58' E 023°26'  
2014-Jul-17 21:26N 37°55' E 023°10'8 8.8
2014-Jul-17 20:33N 37°57' E 023°19'6 6.5
2014-Jul-17 19:33N 38°00' E 023°26'5 5.1
2014-Jul-17 18:34N 38°02' E 023°32'0 0.0
2014-Jul-17 17:17N 38°02' E 023°32'0 0.0
2014-Jul-17 16:34N 38°02' E 023°32'0 0.0
2014-Jul-17 11:32N 38°02' E 023°32'0 0.0
2014-Jul-17 10:30N 38°02' E 023°32'0 0.1
2014-Jul-17 09:33N 38°02' E 023°32'1 1.0
2014-Jul-17 08:33N 38°02' E 023°31'0 0.2
2014-Jul-17 07:33N 38°02' E 023°31'0 0.0
2014-Jul-17 06:31N 38°02' E 023°31'0 0.0
2014-Jul-17 05:33N 38°02' E 023°31'0 0.0
2014-Jul-17 04:33N 38°02' E 023°31'0 0.0
2014-Jul-17 03:31N 38°02' E 023°31'0 0.0
2014-Jul-17 02:26N 38°02' E 023°31'0 0.0
2014-Jul-17 01:28N 38°02' E 023°31'0 0.0
2014-Jul-17 00:33N 38°02' E 023°31'0 0.0
2014-Jul-16 23:31N 38°02' E 023°31'0 0.0
2014-Jul-16 22:28N 38°02' E 023°31'0 0.0
2014-Jul-16 21:29N 38°02' E 023°31'0 0.1
2014-Jul-16 20:27N 38°02' E 023°31'1 1.1
2014-Jul-16 19:33N 38°02' E 023°32'0 0.0
2014-Jul-14 20:15N 38°02' E 023°32'  

Dump ship's entire track history